sensor_id;sensor_type;location;lat;lon;timestamp;pressure;altitude;pressure_sealevel;temperature;humidity
34586;BME280;20816;50.950;11.108;2024-02-26T00:01:04;96987.75;;;1.50;100.00
34586;BME280;20816;50.950;11.108;2024-02-26T00:03:31;96987.72;;;1.53;100.00
34586;BME280;20816;50.950;11.108;2024-02-26T00:06:00;96991.22;;;1.49;100.00
34586;BME280;20816;50.950;11.108;2024-02-26T00:08:26;96994.66;;;1.49;100.00
34586;BME280;20816;50.950;11.108;2024-02-26T00:10:53;96996.50;;;1.39;100.00
34586;BME280;20816;50.950;11.108;2024-02-26T00:13:20;96994.88;;;1.29;100.00
34586;BME280;20816;50.950;11.108;2024-02-26T00:15:48;96989.75;;;1.26;100.00
34586;BME280;20816;50.950;11.108;2024-02-26T00:18:15;96994.09;;;1.21;100.00
34586;BME280;20816;50.950;11.108;2024-02-26T00:20:42;96987.41;;;1.06;100.00
34586;BME280;20816;50.950;11.108;2024-02-26T00:23:09;96989.19;;;0.97;100.00
34586;BME280;20816;50.950;11.108;2024-02-26T00:25:36;96977.09;;;1.02;100.00
34586;BME280;20816;50.950;11.108;2024-02-26T00:28:04;96970.25;;;0.98;100.00
34586;BME280;20816;50.950;11.108;2024-02-26T00:30:31;96970.31;;;0.89;100.00
34586;BME280;20816;50.950;11.108;2024-02-26T00:32:58;96965.13;;;0.89;100.00
34586;BME280;20816;50.950;11.108;2024-02-26T00:35:25;96966.00;;;0.89;100.00
34586;BME280;20816;50.950;11.108;2024-02-26T00:37:51;96958.25;;;0.88;100.00
34586;BME280;20816;50.950;11.108;2024-02-26T00:40:18;96963.44;;;0.88;100.00
34586;BME280;20816;50.950;11.108;2024-02-26T00:42:45;96965.22;;;0.82;100.00
34586;BME280;20816;50.950;11.108;2024-02-26T00:45:12;96955.72;;;0.84;100.00
34586;BME280;20816;50.950;11.108;2024-02-26T00:47:39;96949.72;;;0.79;100.00
34586;BME280;20816;50.950;11.108;2024-02-26T00:50:08;96955.78;;;0.77;100.00
34586;BME280;20816;50.950;11.108;2024-02-26T00:52:35;96955.84;;;0.71;100.00
34586;BME280;20816;50.950;11.108;2024-02-26T00:55:02;96956.69;;;0.71;100.00
34586;BME280;20816;50.950;11.108;2024-02-26T00:57:29;96953.22;;;0.72;100.00
34586;BME280;20816;50.950;11.108;2024-02-26T00:59:56;96953.28;;;0.68;100.00
34586;BME280;20816;50.950;11.108;2024-02-26T01:02:23;96950.78;;;0.60;100.00
34586;BME280;20816;50.950;11.108;2024-02-26T01:04:50;96952.50;;;0.60;100.00
34586;BME280;20816;50.950;11.108;2024-02-26T01:07:17;96959.44;;;0.53;100.00
34586;BME280;20816;50.950;11.108;2024-02-26T01:09:44;96960.38;;;0.49;100.00
34586;BME280;20816;50.950;11.108;2024-02-26T01:12:10;96962.16;;;0.41;100.00
34586;BME280;20816;50.950;11.108;2024-02-26T01:14:37;96959.56;;;0.42;100.00
34586;BME280;20816;50.950;11.108;2024-02-26T01:17:04;96957.81;;;0.44;100.00
34586;BME280;20816;50.950;11.108;2024-02-26T01:19:31;96950.06;;;0.43;100.00
34586;BME280;20816;50.950;11.108;2024-02-26T01:21:58;96944.91;;;0.43;100.00
34586;BME280;20816;50.950;11.108;2024-02-26T01:24:24;96944.03;;;0.44;100.00
34586;BME280;20816;50.950;11.108;2024-02-26T01:26:51;96937.09;;;0.49;100.00
34586;BME280;20816;50.950;11.108;2024-02-26T01:29:17;96937.91;;;0.54;100.00
34586;BME280;20816;50.950;11.108;2024-02-26T01:31:44;96936.09;;;0.65;100.00
34586;BME280;20816;50.950;11.108;2024-02-26T01:34:11;96941.19;;;0.71;100.00
34586;BME280;20816;50.950;11.108;2024-02-26T01:36:38;96941.13;;;0.77;100.00
34586;BME280;20816;50.950;11.108;2024-02-26T01:39:04;96936.88;;;0.72;100.00
34586;BME280;20816;50.950;11.108;2024-02-26T01:41:31;96941.22;;;0.68;100.00
34586;BME280;20816;50.950;11.108;2024-02-26T01:43:58;96936.94;;;0.66;100.00
34586;BME280;20816;50.950;11.108;2024-02-26T01:46:25;96934.28;;;0.73;100.00
34586;BME280;20816;50.950;11.108;2024-02-26T01:48:51;96933.41;;;0.73;100.00
34586;BME280;20816;50.950;11.108;2024-02-26T01:51:18;96941.31;;;0.59;100.00
34586;BME280;20816;50.950;11.108;2024-02-26T01:53:45;96938.81;;;0.47;100.00
34586;BME280;20816;50.950;11.108;2024-02-26T01:56:14;96941.50;;;0.41;100.00
34586;BME280;20816;50.950;11.108;2024-02-26T01:58:41;96945.78;;;0.42;100.00
34586;BME280;20816;50.950;11.108;2024-02-26T02:01:09;96939.78;;;0.37;100.00
34586;BME280;20816;50.950;11.108;2024-02-26T02:03:36;96949.25;;;0.38;100.00
34586;BME280;20816;50.950;11.108;2024-02-26T02:06:04;96951.84;;;0.38;100.00
34586;BME280;20816;50.950;11.108;2024-02-26T02:08:31;96952.66;;;0.40;100.00
34586;BME280;20816;50.950;11.108;2024-02-26T02:10:58;96953.53;;;0.42;100.00
34586;BME280;20816;50.950;11.108;2024-02-26T02:13:26;96955.25;;;0.43;100.00
34586;BME280;20816;50.950;11.108;2024-02-26T02:15:53;96951.75;;;0.47;100.00
34586;BME280;20816;50.950;11.108;2024-02-26T02:18:19;96963.78;;;0.51;100.00
34586;BME280;20816;50.950;11.108;2024-02-26T02:20:46;96959.53;;;0.44;100.00
34586;BME280;20816;50.950;11.108;2024-02-26T02:23:13;96959.56;;;0.42;100.00
34586;BME280;20816;50.950;11.108;2024-02-26T02:25:40;96949.25;;;0.38;100.00
34586;BME280;20816;50.950;11.108;2024-02-26T02:28:07;96950.97;;;0.39;100.00
34586;BME280;20816;50.950;11.108;2024-02-26T02:30:34;96955.28;;;0.37;100.00
34586;BME280;20816;50.950;11.108;2024-02-26T02:33:02;96960.50;;;0.34;100.00
34586;BME280;20816;50.950;11.108;2024-02-26T02:35:29;96946.75;;;0.24;100.00
34586;BME280;20816;50.950;11.108;2024-02-26T02:37:57;96948.53;;;0.20;100.00
34586;BME280;20816;50.950;11.108;2024-02-26T02:40:24;96948.56;;;0.17;100.00
34586;BME280;20816;50.950;11.108;2024-02-26T02:42:50;96952.03;;;0.13;100.00
34586;BME280;20816;50.950;11.108;2024-02-26T02:45:18;96955.50;;;0.09;100.00
34586;BME280;20816;50.950;11.108;2024-02-26T02:47:44;96955.53;;;0.05;100.00
34586;BME280;20816;50.950;11.108;2024-02-26T02:50:11;96964.97;;;0.10;100.00
34586;BME280;20816;50.950;11.108;2024-02-26T02:52:38;96958.09;;;0.06;100.00
34586;BME280;20816;50.950;11.108;2024-02-26T02:55:05;96961.56;;;0.04;100.00
34586;BME280;20816;50.950;11.108;2024-02-26T02:57:32;96961.63;;;-0.04;100.00
34586;BME280;20816;50.950;11.108;2024-02-26T02:59:59;96961.63;;;-0.06;100.00
34586;BME280;20816;50.950;11.108;2024-02-26T03:02:26;96966.81;;;-0.07;100.00
34586;BME280;20816;50.950;11.108;2024-02-26T03:04:53;96961.72;;;-0.21;100.00
34586;BME280;20816;50.950;11.108;2024-02-26T03:07:20;96961.72;;;-0.21;100.00
34586;BME280;20816;50.950;11.108;2024-02-26T03:09:47;96972.03;;;-0.19;100.00
34586;BME280;20816;50.950;11.108;2024-02-26T03:12:13;96970.31;;;-0.20;100.00
34586;BME280;20816;50.950;11.108;2024-02-26T03:14:40;96968.59;;;-0.20;100.00
34586;BME280;20816;50.950;11.108;2024-02-26T03:17:07;96971.09;;;-0.09;100.00
34586;BME280;20816;50.950;11.108;2024-02-26T03:19:34;96973.81;;;-0.24;100.00
34586;BME280;20816;50.950;11.108;2024-02-26T03:22:01;96969.47;;;-0.22;100.00
34586;BME280;20816;50.950;11.108;2024-02-26T03:24:28;96983.25;;;-0.23;100.00
34586;BME280;20816;50.950;11.108;2024-02-26T03:26:55;96978.09;;;-0.23;100.00
34586;BME280;20816;50.950;11.108;2024-02-26T03:29:22;96981.53;;;-0.28;100.00
34586;BME280;20816;50.950;11.108;2024-02-26T03:31:49;96984.13;;;-0.26;100.00
34586;BME280;20816;50.950;11.108;2024-02-26T03:34:16;96984.97;;;-0.25;100.00
34586;BME280;20816;50.950;11.108;2024-02-26T03:36:44;96978.16;;;-0.33;100.00
34586;BME280;20816;50.950;11.108;2024-02-26T03:39:11;96977.22;;;-0.21;100.00
34586;BME280;20816;50.950;11.108;2024-02-26T03:41:38;96975.44;;;-0.08;100.00
34586;BME280;20816;50.950;11.108;2024-02-26T03:44:05;96973.63;;;-0.02;100.00
34586;BME280;20816;50.950;11.108;2024-02-26T03:46:31;96969.34;;;0.02;100.00
34586;BME280;20816;50.950;11.108;2024-02-26T03:48:58;96971.94;;;0.01;100.00
34586;BME280;20816;50.950;11.108;2024-02-26T03:51:25;96969.34;;;0.02;100.00
34586;BME280;20816;50.950;11.108;2024-02-26T03:53:53;96964.16;;;-0.01;100.00
34586;BME280;20816;50.950;11.108;2024-02-26T03:56:19;96962.47;;;0.01;100.00
34586;BME280;20816;50.950;11.108;2024-02-26T03:58:47;96964.22;;;-0.07;100.00
34586;BME280;20816;50.950;11.108;2024-02-26T04:01:13;96966.81;;;-0.10;100.00
34586;BME280;20816;50.950;11.108;2024-02-26T04:03:40;96966.00;;;-0.18;100.00
34586;BME280;20816;50.950;11.108;2024-02-26T04:06:10;96960.88;;;-0.21;100.00
34586;BME280;20816;50.950;11.108;2024-02-26T04:08:46;96963.47;;;-0.24;100.00
34586;BME280;20816;50.950;11.108;2024-02-26T04:11:13;96968.59;;;-0.18;100.00
34586;BME280;20816;50.950;11.108;2024-02-26T04:13:44;96971.16;;;-0.15;100.00
34586;BME280;20816;50.950;11.108;2024-02-26T04:16:16;96969.44;;;-0.13;100.00
34586;BME280;20816;50.950;11.108;2024-02-26T04:18:43;96971.97;;;-0.09;100.00
34586;BME280;20816;50.950;11.108;2024-02-26T04:21:09;96963.41;;;-0.14;100.00
34586;BME280;20816;50.950;11.108;2024-02-26T04:23:36;96974.59;;;-0.13;100.00
34586;BME280;20816;50.950;11.108;2024-02-26T04:26:04;96969.41;;;-0.10;100.00
34586;BME280;20816;50.950;11.108;2024-02-26T04:28:31;96967.72;;;-0.14;100.00
34586;BME280;20816;50.950;11.108;2024-02-26T04:30:58;96963.41;;;-0.17;100.00
34586;BME280;20816;50.950;11.108;2024-02-26T04:33:25;96966.84;;;-0.18;100.00
34586;BME280;20816;50.950;11.108;2024-02-26T04:35:52;96963.41;;;-0.18;100.00
34586;BME280;20816;50.950;11.108;2024-02-26T04:38:18;96967.69;;;-0.11;100.00
34586;BME280;20816;50.950;11.108;2024-02-26T04:40:45;96969.34;;;-0.03;100.00
34586;BME280;20816;50.950;11.108;2024-02-26T04:43:13;96965.91;;;-0.03;100.00
34586;BME280;20816;50.950;11.108;2024-02-26T04:45:40;96971.81;;;0.14;100.00
34586;BME280;20816;50.950;11.108;2024-02-26T04:48:07;96968.34;;;0.18;100.00
34586;BME280;20816;50.950;11.108;2024-02-26T04:50:34;96955.47;;;0.17;100.00
34586;BME280;20816;50.950;11.108;2024-02-26T04:53:01;96957.16;;;0.19;100.00
34586;BME280;20816;50.950;11.108;2024-02-26T04:55:27;96955.47;;;0.17;100.00
34586;BME280;20816;50.950;11.108;2024-02-26T04:57:54;96956.28;;;0.19;100.00
34586;BME280;20816;50.950;11.108;2024-02-26T05:00:21;96964.91;;;0.15;100.00
34586;BME280;20816;50.950;11.108;2024-02-26T05:02:47;96964.09;;;0.11;100.00
34586;BME280;20816;50.950;11.108;2024-02-26T05:05:14;96958.97;;;0.08;100.00
34586;BME280;20816;50.950;11.108;2024-02-26T05:07:41;96962.38;;;0.12;100.00
34586;BME280;20816;50.950;11.108;2024-02-26T05:10:09;96962.28;;;0.25;100.00
34586;BME280;20816;50.950;11.108;2024-02-26T05:12:36;96960.53;;;0.27;100.00
34586;BME280;20816;50.950;11.108;2024-02-26T05:15:03;96963.03;;;0.37;100.00
34586;BME280;20816;50.950;11.108;2024-02-26T05:17:30;96968.13;;;0.46;100.00
34586;BME280;20816;50.950;11.108;2024-02-26T05:19:57;96971.56;;;0.49;100.00
34586;BME280;20816;50.950;11.108;2024-02-26T05:22:23;96966.41;;;0.45;100.00
34586;BME280;20816;50.950;11.108;2024-02-26T05:24:50;96971.63;;;0.42;100.00
34586;BME280;20816;50.950;11.108;2024-02-26T05:27:18;96963.03;;;0.38;100.00
34586;BME280;20816;50.950;11.108;2024-02-26T05:29:44;96968.19;;;0.41;100.00
34586;BME280;20816;50.950;11.108;2024-02-26T05:32:11;96971.53;;;0.48;100.00
34586;BME280;20816;50.950;11.108;2024-02-26T05:34:38;96969.78;;;0.53;100.00
34586;BME280;20816;50.950;11.108;2024-02-26T05:37:04;96974.16;;;0.49;100.00
34586;BME280;20816;50.950;11.108;2024-02-26T05:39:31;96984.44;;;0.54;100.00
34586;BME280;20816;50.950;11.108;2024-02-26T05:41:58;96988.75;;;0.53;100.00
34586;BME280;20816;50.950;11.108;2024-02-26T05:44:26;96989.63;;;0.51;100.00
34586;BME280;20816;50.950;11.108;2024-02-26T05:46:53;96985.28;;;0.54;100.00
34586;BME280;20816;50.950;11.108;2024-02-26T05:49:20;96981.81;;;0.55;100.00
34586;BME280;20816;50.950;11.108;2024-02-26T05:51:47;96986.03;;;0.67;100.00
34586;BME280;20816;50.950;11.108;2024-02-26T05:54:14;96978.31;;;0.66;100.00
34586;BME280;20816;50.950;11.108;2024-02-26T05:56:40;96988.59;;;0.69;100.00
34586;BME280;20816;50.950;11.108;2024-02-26T05:59:07;96989.41;;;0.75;100.00
34586;BME280;20816;50.950;11.108;2024-02-26T06:01:34;96989.31;;;0.84;100.00
34586;BME280;20816;50.950;11.108;2024-02-26T06:04:01;96994.50;;;0.84;100.00
34586;BME280;20816;50.950;11.108;2024-02-26T06:06:28;96999.66;;;0.84;100.00
34586;BME280;20816;50.950;11.108;2024-02-26T06:08:55;96994.47;;;0.88;100.00
34586;BME280;20816;50.950;11.108;2024-02-26T06:11:21;96996.22;;;0.86;100.00
34586;BME280;20816;50.950;11.108;2024-02-26T06:13:49;96990.19;;;0.85;100.00
34586;BME280;20816;50.950;11.108;2024-02-26T06:16:16;96997.09;;;0.83;100.00
34586;BME280;20816;50.950;11.108;2024-02-26T06:18:43;96998.81;;;0.81;100.00
34586;BME280;20816;50.950;11.108;2024-02-26T06:21:10;96995.38;;;0.80;100.00
34586;BME280;20816;50.950;11.108;2024-02-26T06:23:38;97009.16;;;0.81;100.00
34586;BME280;20816;50.950;11.108;2024-02-26T06:26:06;97015.13;;;0.89;100.00
34586;BME280;20816;50.950;11.108;2024-02-26T06:28:33;97016.91;;;0.86;100.00
34586;BME280;20816;50.950;11.108;2024-02-26T06:31:02;97018.59;;;0.87;100.00
34586;BME280;20816;50.950;11.108;2024-02-26T06:33:29;97019.47;;;0.90;100.00
34586;BME280;20816;50.950;11.108;2024-02-26T06:35:56;97016.81;;;0.98;100.00
34586;BME280;20816;50.950;11.108;2024-02-26T06:38:22;97026.25;;;0.97;100.00
34586;BME280;20816;50.950;11.108;2024-02-26T06:40:49;97044.34;;;1.02;100.00
34586;BME280;20816;50.950;11.108;2024-02-26T06:43:16;97045.13;;;1.08;100.00
34586;BME280;20816;50.950;11.108;2024-02-26T06:45:43;97043.47;;;1.03;100.00
34586;BME280;20816;50.950;11.108;2024-02-26T06:48:10;97045.16;;;1.05;100.00
34586;BME280;20816;50.950;11.108;2024-02-26T06:50:37;97042.53;;;1.10;100.00
34586;BME280;20816;50.950;11.108;2024-02-26T06:53:04;97047.66;;;1.13;100.00
34586;BME280;20816;50.950;11.108;2024-02-26T06:55:30;97046.75;;;1.19;100.00
34586;BME280;20816;50.950;11.108;2024-02-26T06:57:57;97054.44;;;1.26;100.00
34586;BME280;20816;50.950;11.108;2024-02-26T07:00:24;97043.22;;;1.27;100.00
34586;BME280;20816;50.950;11.108;2024-02-26T07:02:50;97041.44;;;1.34;100.00
34586;BME280;20816;50.950;11.108;2024-02-26T07:05:17;97041.38;;;1.38;100.00
34586;BME280;20816;50.950;11.108;2024-02-26T07:07:44;97040.38;;;1.52;100.00
34586;BME280;20816;50.950;11.108;2024-02-26T07:10:10;97048.16;;;1.50;100.00
34586;BME280;20816;50.950;11.108;2024-02-26T07:12:39;97061.06;;;1.55;100.00
34586;BME280;20816;50.950;11.108;2024-02-26T07:15:06;97061.06;;;1.55;100.00
34586;BME280;20816;50.950;11.108;2024-02-26T07:17:34;97067.84;;;1.62;100.00
34586;BME280;20816;50.950;11.108;2024-02-26T07:20:02;97060.88;;;1.68;100.00
34586;BME280;20816;50.950;11.108;2024-02-26T07:22:35;97060.91;;;1.67;100.00
34586;BME280;20816;50.950;11.108;2024-02-26T07:25:03;97057.47;;;1.65;100.00
34586;BME280;20816;50.950;11.108;2024-02-26T07:27:30;97072.03;;;1.75;100.00
34586;BME280;20816;50.950;11.108;2024-02-26T07:29:57;97061.72;;;1.71;100.00
34586;BME280;20816;50.950;11.108;2024-02-26T07:32:24;97074.50;;;1.84;100.00
34586;BME280;20816;50.950;11.108;2024-02-26T07:34:50;97082.13;;;1.98;100.00
34586;BME280;20816;50.950;11.108;2024-02-26T07:37:17;97077.66;;;2.08;100.00
34586;BME280;20816;50.950;11.108;2024-02-26T07:39:44;97079.25;;;2.21;100.00
34586;BME280;20816;50.950;11.108;2024-02-26T07:42:11;97092.03;;;2.32;100.00
34586;BME280;20816;50.950;11.108;2024-02-26T07:44:38;97091.97;;;2.38;100.00
34586;BME280;20816;50.950;11.108;2024-02-26T07:47:05;97088.44;;;2.42;100.00
34586;BME280;20816;50.950;11.108;2024-02-26T07:49:31;97086.63;;;2.48;100.00
34586;BME280;20816;50.950;11.108;2024-02-26T07:52:02;97086.47;;;2.61;100.00
34586;BME280;20816;50.950;11.108;2024-02-26T07:54:29;97095.88;;;2.65;100.00
34586;BME280;20816;50.950;11.108;2024-02-26T07:56:56;97093.25;;;2.69;100.00
34586;BME280;20816;50.950;11.108;2024-02-26T07:59:23;97100.91;;;2.77;100.00
34586;BME280;20816;50.950;11.108;2024-02-26T08:01:51;97096.53;;;2.79;100.00
34586;BME280;20816;50.950;11.108;2024-02-26T08:04:24;97106.81;;;2.87;100.00
34586;BME280;20816;50.950;11.108;2024-02-26T08:06:51;97105.84;;;2.92;100.00
34586;BME280;20816;50.950;11.108;2024-02-26T08:09:18;97102.22;;;3.01;100.00
34586;BME280;20816;50.950;11.108;2024-02-26T08:11:45;97104.72;;;3.08;100.00
34586;BME280;20816;50.950;11.108;2024-02-26T08:14:11;97102.03;;;3.15;100.00
34586;BME280;20816;50.950;11.108;2024-02-26T08:16:38;97100.13;;;3.24;100.00
34586;BME280;20816;50.950;11.108;2024-02-26T08:19:05;97103.53;;;3.28;100.00
34586;BME280;20816;50.950;11.108;2024-02-26T08:21:32;97106.88;;;3.33;100.00
34586;BME280;20816;50.950;11.108;2024-02-26T08:23:58;97099.75;;;3.46;100.00
34586;BME280;20816;50.950;11.108;2024-02-26T08:26:25;97109.28;;;3.45;100.00
34586;BME280;20816;50.950;11.108;2024-02-26T08:28:52;97110.91;;;3.52;100.00
34586;BME280;20816;50.950;11.108;2024-02-26T08:31:21;97109.84;;;3.62;100.00
34586;BME280;20816;50.950;11.108;2024-02-26T08:33:47;97113.22;;;3.68;100.00
34586;BME280;20816;50.950;11.108;2024-02-26T08:36:14;97107.06;;;3.72;100.00
34586;BME280;20816;50.950;11.108;2024-02-26T08:38:41;97114.69;;;3.81;100.00
34586;BME280;20816;50.950;11.108;2024-02-26T08:41:08;97106.25;;;4.13;100.00
34586;BME280;20816;50.950;11.108;2024-02-26T08:43:35;97110.22;;;4.31;100.00
34586;BME280;20816;50.950;11.108;2024-02-26T08:46:01;97104.03;;;4.36;100.00
34586;BME280;20816;50.950;11.108;2024-02-26T08:48:29;97101.19;;;4.47;100.00
34586;BME280;20816;50.950;11.108;2024-02-26T08:50:56;97090.66;;;4.53;100.00
34586;BME280;20816;50.950;11.108;2024-02-26T08:53:23;97086.34;;;4.52;100.00
34586;BME280;20816;50.950;11.108;2024-02-26T08:56:03;97088.53;;;4.70;100.00
34586;BME280;20816;50.950;11.108;2024-02-26T08:58:30;97085.78;;;4.76;100.00
34586;BME280;20816;50.950;11.108;2024-02-26T09:00:57;97084.47;;;4.96;100.00
34586;BME280;20816;50.950;11.108;2024-02-26T09:03:24;97085.13;;;5.04;100.00
34586;BME280;20816;50.950;11.108;2024-02-26T09:05:52;97083.91;;;5.19;100.00
34586;BME280;20816;50.950;11.108;2024-02-26T09:08:19;97086.13;;;5.34;100.00
34586;BME280;20816;50.950;11.108;2024-02-26T09:10:46;97090.09;;;5.49;100.00
34586;BME280;20816;50.950;11.108;2024-02-26T09:13:13;97091.72;;;5.53;100.00
34586;BME280;20816;50.950;11.108;2024-02-26T09:15:40;97093.22;;;5.61;100.00
34586;BME280;20816;50.950;11.108;2024-02-26T09:18:06;97098.13;;;5.74;99.91
34586;BME280;20816;50.950;11.108;2024-02-26T09:20:33;97099.72;;;5.79;99.70
34586;BME280;20816;50.950;11.108;2024-02-26T09:23:00;97091.00;;;5.80;98.60
34586;BME280;20816;50.950;11.108;2024-02-26T09:25:27;97091.84;;;5.81;99.81
34586;BME280;20816;50.950;11.108;2024-02-26T09:27:54;97092.69;;;5.49;100.00
34586;BME280;20816;50.950;11.108;2024-02-26T09:30:21;97101.03;;;5.61;100.00
34586;BME280;20816;50.950;11.108;2024-02-26T09:32:48;97100.81;;;5.69;100.00
34586;BME280;20816;50.950;11.108;2024-02-26T09:35:15;97095.22;;;5.52;100.00
34586;BME280;20816;50.950;11.108;2024-02-26T09:37:42;97098.31;;;5.66;100.00
34586;BME280;20816;50.950;11.108;2024-02-26T09:40:11;97103.63;;;5.63;100.00
34586;BME280;20816;50.950;11.108;2024-02-26T09:42:43;97096.44;;;5.71;100.00
34586;BME280;20816;50.950;11.108;2024-02-26T09:45:17;97093.66;;;5.77;100.00
34586;BME280;20816;50.950;11.108;2024-02-26T09:47:45;97102.00;;;5.90;100.00
34586;BME280;20816;50.950;11.108;2024-02-26T09:50:13;97110.91;;;5.83;100.00
34586;BME280;20816;50.950;11.108;2024-02-26T09:52:41;97107.78;;;6.03;100.00
34586;BME280;20816;50.950;11.108;2024-02-26T09:55:09;97100.25;;;6.23;99.68
34586;BME280;20816;50.950;11.108;2024-02-26T09:57:37;97102.47;;;6.37;98.76
34586;BME280;20816;50.950;11.108;2024-02-26T10:00:07;97102.94;;;6.50;97.83
34586;BME280;20816;50.950;11.108;2024-02-26T10:02:38;97110.25;;;6.68;97.00
34586;BME280;20816;50.950;11.108;2024-02-26T10:05:07;97104.75;;;6.77;96.16
34586;BME280;20816;50.950;11.108;2024-02-26T10:07:37;97102.13;;;6.77;95.14
34586;BME280;20816;50.950;11.108;2024-02-26T10:10:04;97107.19;;;6.82;95.67
34586;BME280;20816;50.950;11.108;2024-02-26T10:12:31;97111.81;;;7.01;94.71
34586;BME280;20816;50.950;11.108;2024-02-26T10:14:59;97112.81;;;7.24;93.35
34586;BME280;20816;50.950;11.108;2024-02-26T10:17:26;97117.97;;;6.99;94.11
34586;BME280;20816;50.950;11.108;2024-02-26T10:19:54;97113.03;;;7.18;92.85
34586;BME280;20816;50.950;11.108;2024-02-26T10:22:23;97121.25;;;7.32;92.40
34586;BME280;20816;50.950;11.108;2024-02-26T10:24:50;97119.78;;;7.25;92.11
34586;BME280;20816;50.950;11.108;2024-02-26T10:27:18;97121.25;;;7.58;91.57
34586;BME280;20816;50.950;11.108;2024-02-26T10:29:45;97114.91;;;7.66;90.26
34586;BME280;20816;50.950;11.108;2024-02-26T10:32:13;97118.13;;;7.74;89.98
34586;BME280;20816;50.950;11.108;2024-02-26T10:34:40;97127.56;;;7.78;89.52
34586;BME280;20816;50.950;11.108;2024-02-26T10:37:09;97129.13;;;7.83;89.78
34586;BME280;20816;50.950;11.108;2024-02-26T10:39:36;97123.13;;;7.80;90.40
34586;BME280;20816;50.950;11.108;2024-02-26T10:42:04;97124.81;;;7.81;91.77
34586;BME280;20816;50.950;11.108;2024-02-26T10:44:36;97126.19;;;7.68;91.73
34586;BME280;20816;50.950;11.108;2024-02-26T10:47:03;97125.84;;;7.77;91.10
34586;BME280;20816;50.950;11.108;2024-02-26T10:49:30;97129.84;;;7.87;89.95
34586;BME280;20816;50.950;11.108;2024-02-26T10:51:57;97131.88;;;8.04;90.38
34586;BME280;20816;50.950;11.108;2024-02-26T10:54:26;97130.16;;;8.28;88.56
34586;BME280;20816;50.950;11.108;2024-02-26T10:56:56;97129.50;;;8.46;89.03
34586;BME280;20816;50.950;11.108;2024-02-26T10:59:24;97131.56;;;8.61;86.45
34586;BME280;20816;50.950;11.108;2024-02-26T11:01:51;97120.63;;;8.50;87.52
34586;BME280;20816;50.950;11.108;2024-02-26T11:04:18;97131.59;;;8.36;87.66
34586;BME280;20816;50.950;11.108;2024-02-26T11:06:47;97130.47;;;8.19;89.24
34586;BME280;20816;50.950;11.108;2024-02-26T11:09:15;97122.84;;;8.12;88.38
34586;BME280;20816;50.950;11.108;2024-02-26T11:11:43;97129.66;;;7.93;89.86
34586;BME280;20816;50.950;11.108;2024-02-26T11:14:12;97136.97;;;8.08;90.75
34586;BME280;20816;50.950;11.108;2024-02-26T11:16:39;97141.88;;;8.18;90.35
34586;BME280;20816;50.950;11.108;2024-02-26T11:19:10;97134.94;;;8.17;90.20
34586;BME280;20816;50.950;11.108;2024-02-26T11:21:38;97137.28;;;7.99;91.08
34586;BME280;20816;50.950;11.108;2024-02-26T11:24:15;97137.66;;;7.88;91.97
34586;BME280;20816;50.950;11.108;2024-02-26T11:26:50;97136.91;;;8.10;92.07
34586;BME280;20816;50.950;11.108;2024-02-26T11:29:37;97137.53;;;8.17;92.60
34586;BME280;20816;50.950;11.108;2024-02-26T11:32:06;97137.34;;;8.23;91.64
34586;BME280;20816;50.950;11.108;2024-02-26T11:34:33;97143.50;;;8.20;91.37
34586;BME280;20816;50.950;11.108;2024-02-26T11:39:39;97128.97;;;8.83;89.66
34586;BME280;20816;50.950;11.108;2024-02-26T11:42:07;97138.47;;;8.86;89.32
34586;BME280;20816;50.950;11.108;2024-02-26T11:44:35;97138.31;;;8.90;89.16
34586;BME280;20816;50.950;11.108;2024-02-26T11:47:19;97141.81;;;9.13;87.43
34586;BME280;20816;50.950;11.108;2024-02-26T11:49:46;97137.66;;;9.07;88.46
34586;BME280;20816;50.950;11.108;2024-02-26T11:52:15;97141.19;;;9.06;87.96
34586;BME280;20816;50.950;11.108;2024-02-26T11:54:50;97147.38;;;9.04;87.85
34586;BME280;20816;50.950;11.108;2024-02-26T11:57:37;97153.16;;;9.13;87.85
34586;BME280;20816;50.950;11.108;2024-02-26T12:00:12;97151.78;;;8.81;88.76
34586;BME280;20816;50.950;11.108;2024-02-26T12:07:47;97161.03;;;9.12;87.23
34586;BME280;20816;50.950;11.108;2024-02-26T12:10:24;97157.16;;;9.22;87.00
34586;BME280;20816;50.950;11.108;2024-02-26T12:13:00;97166.25;;;9.13;86.74
34586;BME280;20816;50.950;11.108;2024-02-26T12:15:32;97161.88;;;9.14;88.20
34586;BME280;20816;50.950;11.108;2024-02-26T12:18:02;97162.66;;;9.16;88.10
34586;BME280;20816;50.950;11.108;2024-02-26T12:20:29;97154.69;;;8.95;88.01
34586;BME280;20816;50.950;11.108;2024-02-26T12:22:56;97151.41;;;8.90;88.52
34586;BME280;20816;50.950;11.108;2024-02-26T12:25:26;97143.63;;;8.89;88.99
34586;BME280;20816;50.950;11.108;2024-02-26T12:27:54;97137.53;;;8.88;88.98
34586;BME280;20816;50.950;11.108;2024-02-26T12:30:21;97139.78;;;9.19;88.86
34586;BME280;20816;50.950;11.108;2024-02-26T12:32:50;97145.47;;;9.31;88.12
34586;BME280;20816;50.950;11.108;2024-02-26T12:35:17;97147.59;;;9.21;87.81
34586;BME280;20816;50.950;11.108;2024-02-26T12:37:44;97151.53;;;9.09;88.85
34586;BME280;20816;50.950;11.108;2024-02-26T12:40:11;97146.09;;;9.36;88.13
34586;BME280;20816;50.950;11.108;2024-02-26T12:42:39;97150.19;;;9.43;87.77
34586;BME280;20816;50.950;11.108;2024-02-26T12:45:08;97152.81;;;9.43;88.80
34586;BME280;20816;50.950;11.108;2024-02-26T12:47:37;97152.47;;;9.30;88.30
34586;BME280;20816;50.950;11.108;2024-02-26T12:50:05;97158.13;;;9.19;89.61
34586;BME280;20816;50.950;11.108;2024-02-26T12:52:37;97166.00;;;9.19;88.72
34586;BME280;20816;50.950;11.108;2024-02-26T12:55:06;97169.66;;;9.15;89.04
34586;BME280;20816;50.950;11.108;2024-02-26T12:57:38;97168.53;;;8.99;89.49
34586;BME280;20816;50.950;11.108;2024-02-26T13:00:06;97171.03;;;9.02;89.83